Observation data for Haskell on 12/13/2018      Previous  Date       Current Mesonet Observations  Soil Data  Daily Summary Page  Observations in Plain Language
KHA1 130600Z 19008KT 11/08 A2969 RMK A01 T01090079  RH  084%=      5-min Rain = 0
KHA1 130605Z 20008KT 11/08 A2969 RMK A01 T01080079  RH  084%=      5-min Rain = 0
KHA1 130610Z 19009KT 11/08 A2969 RMK A01 T01090079  RH  084%=      5-min Rain = 0
KHA1 130615Z 19010KT 11/08 A2968 RMK A01 T01100080  RH  084%=      5-min Rain = 0
KHA1 130620Z 19010KT 11/08 A2968 RMK A01 T01100080  RH  084%=      5-min Rain = 0
KHA1 130625Z 19010KT 11/08 A2968 RMK A01 T01100080  RH  084%=      5-min Rain = 0
KHA1 130630Z 19010KT 11/08 A2967 RMK A01 T01110080  RH  084%=      5-min Rain = 0
KHA1 130635Z 19010KT 11/08 A2967 RMK A01 T01100080  RH  084%=      5-min Rain = 0
KHA1 130640Z 19010KT 11/08 A2967 RMK A01 T01100080  RH  084%=      5-min Rain = 0
KHA1 130645Z 19010KT 11/08 A2967 RMK A01 T01100079  RH  084%=      5-min Rain = 0
KHA1 130650Z 20009KT 11/08 A2967 RMK A01 T01080079  RH  084%=      5-min Rain = 0
KHA1 130655Z 19009KT 11/08 A2967 RMK A01 T01080079  RH  085%=      5-min Rain = 0
KHA1 130700Z 19009KT 11/08 A2967 RMK A01 T01060078  RH  085%=      5-min Rain = 0
KHA1 130705Z 19009KT 10/08 A2966 RMK A01 T01040077  RH  086%=      5-min Rain = 0
KHA1 130710Z 19009KT 10/08 A2966 RMK A01 T01030077  RH  086%=      5-min Rain = 0
KHA1 130715Z 20009KT 10/08 A2966 RMK A01 T01010076  RH  087%=      5-min Rain = 0
KHA1 130720Z 20009KT 10/08 A2966 RMK A01 T01000076  RH  087%=      5-min Rain = 0
KHA1 130725Z 20009KT 10/08 A2966 RMK A01 T01000075  RH  087%=      5-min Rain = 0
KHA1 130730Z 20009KT 10/08 A2965 RMK A01 T00990075  RH  087%=      5-min Rain = 0
KHA1 130735Z 19010KT 10/08 A2965 RMK A01 T01010076  RH  086%=      5-min Rain = 0
KHA1 130740Z 19010KT 10/08 A2965 RMK A01 T01030076  RH  085%=      5-min Rain = 0
KHA1 130745Z 19010KT 10/08 A2965 RMK A01 T01020075  RH  085%=      5-min Rain = 0
KHA1 130750Z 19010KT 10/08 A2965 RMK A01 T01030075  RH  085%=      5-min Rain = 0
KHA1 130755Z 19010KT 10/08 A2965 RMK A01 T01030075  RH  085%=      5-min Rain = 0
KHA1 130800Z 19010KT 10/07 A2965 RMK A01 T01000073  RH  086%=      5-min Rain = 0
KHA1 130805Z 19010KT 10/07 A2965 RMK A01 T00990073  RH  086%=      5-min Rain = 0
KHA1 130810Z 19010KT 10/07 A2965 RMK A01 T00990073  RH  086%=      5-min Rain = 0
KHA1 130815Z 19010KT 10/07 A2965 RMK A01 T00990073  RH  086%=      5-min Rain = 0
KHA1 130820Z 20010KT 10/07 A2965 RMK A01 T01000073  RH  085%=      5-min Rain = 0
KHA1 130825Z 20010KT 10/07 A2965 RMK A01 T01000073  RH  085%=      5-min Rain = 0
KHA1 130830Z 19010KT 10/07 A2964 RMK A01 T01000072  RH  085%=      5-min Rain = 0
KHA1 130835Z 19010KT 10/07 A2964 RMK A01 T00990072  RH  086%=      5-min Rain = 0
KHA1 130840Z 20010KT 10/07 A2964 RMK A01 T00970071  RH  086%=      5-min Rain = 0
KHA1 130845Z 20010KT 10/07 A2964 RMK A01 T00960071  RH  087%=      5-min Rain = 0
KHA1 130850Z 20009KT 10/07 A2964 RMK A01 T00950071  RH  087%=      5-min Rain = 0
KHA1 130855Z 20009KT 09/07 A2964 RMK A01 T00940070  RH  087%=      5-min Rain = 0
KHA1 130900Z 20010KT 09/07 A2964 RMK A01 T00920069  RH  088%=      5-min Rain = 0
KHA1 130905Z 20010KT 09/07 A2963 RMK A01 T00910069  RH  088%=      5-min Rain = 0
KHA1 130910Z 20010KT 09/07 A2963 RMK A01 T00910069  RH  088%=      5-min Rain = 0
KHA1 130915Z 20011KT 09/07 A2963 RMK A01 T00900069  RH  088%=      5-min Rain = 0
KHA1 130920Z 19010KT 09/07 A2963 RMK A01 T00910069  RH  088%=      5-min Rain = 0
KHA1 130925Z 20009KT 09/07 A2963 RMK A01 T00900068  RH  088%=      5-min Rain = 0
KHA1 130930Z 19009KT 09/07 A2963 RMK A01 T00890068  RH  089%=      5-min Rain = 0
KHA1 130935Z 20009KT 09/07 A2963 RMK A01 T00880067  RH  089%=      5-min Rain = 0
KHA1 130940Z 20009KT 09/07 A2963 RMK A01 T00880067  RH  089%=      5-min Rain = 0
KHA1 130945Z 21009KT 09/07 A2962 RMK A01 T00850065  RH  090%=      5-min Rain = 0
KHA1 130950Z 21008KT 08/06 A2962 RMK A01 T00820064  RH  091%=      5-min Rain = 0
KHA1 130955Z 21008KT 08/06 A2962 RMK A01 T00800063  RH  091%=      5-min Rain = 0
KHA1 131000Z 21008KT 08/06 A2962 RMK A01 T00780062  RH  092%=      5-min Rain = 0
KHA1 131005Z 21008KT 08/06 A2962 RMK A01 T00770061  RH  092%=      5-min Rain = 0
KHA1 131010Z 21008KT 08/06 A2961 RMK A01 T00760061  RH  092%=      5-min Rain = 0
KHA1 131015Z 21008KT 08/06 A2961 RMK A01 T00750061  RH  093%=      5-min Rain = 0
KHA1 131020Z 21008KT 08/06 A2961 RMK A01 T00760061  RH  093%=      5-min Rain = 0
KHA1 131025Z 22009KT 08/06 A2962 RMK A01 T00760061  RH  092%=      5-min Rain = 0
KHA1 131030Z 22009KT 08/06 A2961 RMK A01 T00760060  RH  092%=      5-min Rain = 0
KHA1 131035Z 21008KT 08/06 A2961 RMK A01 T00750060  RH  092%=      5-min Rain = 0
KHA1 131040Z 22008KT 07/06 A2961 RMK A01 T00740059  RH  092%=      5-min Rain = 0
KHA1 131045Z 21009KT 07/06 A2961 RMK A01 T00730059  RH  093%=      5-min Rain = 0
KHA1 131050Z 21009KT 08/06 A2961 RMK A01 T00760061  RH  092%=      5-min Rain = 0
KHA1 131055Z 21009KT 08/06 A296 RMK A01 T00770061  RH  091%=      5-min Rain = 0
KHA1 131100Z 21008KT 08/06 A296 RMK A01 T00770061  RH  091%=      5-min Rain = 0
KHA1 131105Z 20008KT 08/06 A2961 RMK A01 T00780061  RH  091%=      5-min Rain = 0
KHA1 131110Z 20008KT 08/06 A2961 RMK A01 T00800062  RH  091%=      5-min Rain = 0
KHA1 131115Z 21007KT 08/06 A2961 RMK A01 T00810062  RH  090%=      5-min Rain = 0
KHA1 131120Z 23006KT 08/06 A2962 RMK A01 T00810061  RH  089%=      5-min Rain = 0
KHA1 131125Z 20006KT 08/06 A2961 RMK A01 T00800061  RH  090%=      5-min Rain = 0
KHA1 131130Z 19006KT 08/06 A2961 RMK A01 T00800061  RH  090%=      5-min Rain = 0
KHA1 131135Z 21006KT 08/06 A2962 RMK A01 T00780060  RH  090%=      5-min Rain = 0
KHA1 131140Z 21006KT 08/06 A2963 RMK A01 T00780059  RH  090%=      5-min Rain = 0
KHA1 131145Z 22006KT 08/06 A2963 RMK A01 T00770059  RH  090%=      5-min Rain = 0
KHA1 131150Z 22007KT 08/06 A2963 RMK A01 T00750058  RH  091%=      5-min Rain = 0
KHA1 131155Z 23006KT 07/06 A2963 RMK A01 T00740057  RH  091%=      5-min Rain = 0
KHA1 131200Z 24006KT 08/06 A2963 RMK A01 T00750058  RH  091%=      5-min Rain = 0
KHA1 131205Z 25007KT 08/06 A2963 RMK A01 T00780058  RH  089%=      5-min Rain = 0
KHA1 131210Z 27006KT 07/06 A2962 RMK A01 T00740055  RH  090%=      5-min Rain = 0
KHA1 131215Z 28007KT 07/05 A2962 RMK A01 T00670051  RH  091%=      5-min Rain = 0
KHA1 131220Z 29008KT 07/05 A2963 RMK A01 T00670053  RH  093%=      5-min Rain = 0
KHA1 131225Z 31011G17KT 07/05 A2963 RMK A01 T00680053  RH  092%=      5-min Rain = 0
KHA1 131230Z 33021G29KT 08/05 A2963 RMK A01 T00760046  RH  083%=      5-min Rain = 0
KHA1 131235Z 33019G26KT 07/03 A2963 RMK A01 T00700026  RH  075%=      5-min Rain = 0
KHA1 131240Z 34018KT 06/02 A2963 RMK A01 T00640017  RH  073%=      5-min Rain = 0
KHA1 131245Z 33019KT 06/01 A2964 RMK A01 T00610013  RH  073%=      5-min Rain = 0
KHA1 131250Z 33020G26KT 06/01 A2965 RMK A01 T00580012  RH  074%=      5-min Rain = 0
KHA1 131255Z 33022G27KT 06/01 A2965 RMK A01 T00560011  RH  074%=      5-min Rain = 0
KHA1 131300Z 33020G26KT 05/01 A2965 RMK A01 T00530014  RH  077%=      5-min Rain = 0
KHA1 131305Z 33023G30KT 05/02 A2965 RMK A01 T00520017  RH  079%=      5-min Rain = 0
KHA1 131310Z 33023G29KT 05/03 A2965 RMK A01 T00530025  RH  084%=      5-min Rain = 0
KHA1 131315Z 33022G27KT 05/03 A2966 RMK A01 T00540027  RH  084%=      5-min Rain = 0
KHA1 131320Z 33021G26KT 06/03 A2966 RMK A01 T00550030  RH  085%=      5-min Rain = 0
KHA1 131325Z 34023G29KT 06/03 A2966 RMK A01 T00560032  RH  086%=      5-min Rain = 0
KHA1 131330Z 33022G28KT 06/03 A2966 RMK A01 T00570034  RH  086%=      5-min Rain = 0
KHA1 131335Z 34022G28KT 06/04 A2966 RMK A01 T00580036  RH  087%=      5-min Rain = 0
KHA1 131340Z 34023G29KT 06/04 A2967 RMK A01 T00590038  RH  088%=      5-min Rain = 0
KHA1 131345Z 34022G28KT 06/04 A2967 RMK A01 T00600040  RH  089%=      5-min Rain = 0
KHA1 131350Z 34020G26KT 06/04 A2969 RMK A01 T00620042  RH  089%=      5-min Rain = 0
KHA1 131355Z 34019G24KT 06/04 A297 RMK A01 T00630043  RH  089%=      5-min Rain = 0
KHA1 131400Z 34019G25KT 07/04 A2971 RMK A01 T00650044  RH  089%=      5-min Rain = 0
KHA1 131405Z 34020G27KT 07/05 A2971 RMK A01 T00660045  RH  089%=      5-min Rain = 0
KHA1 131410Z 34021KT 07/05 A2971 RMK A01 T00660046  RH  088%=      5-min Rain = 0
KHA1 131415Z 34022G28KT 07/05 A2972 RMK A01 T00680046  RH  088%=      5-min Rain = 0
KHA1 131420Z 35022G31KT 07/05 A2972 RMK A01 T00690047  RH  088%=      5-min Rain = 0
KHA1 131425Z 35021G28KT 07/05 A2973 RMK A01 T00690048  RH  088%=      5-min Rain = 0
KHA1 131430Z 35025G31KT 07/05 A2973 RMK A01 T00700048  RH  088%=      5-min Rain = 0
KHA1 131435Z 35021G27KT 07/05 A2973 RMK A01 T00700049  RH  088%=      5-min Rain = 0
KHA1 131440Z 35022G31KT 07/05 A2973 RMK A01 T00700048  RH  088%=      5-min Rain = 0
KHA1 131445Z 35029G37KT 07/05 A2973 RMK A01 T00700046  RH  086%=      5-min Rain = 0
KHA1 131450Z 35028G37KT 07/04 A2974 RMK A01 T00690043  RH  085%=      5-min Rain = 0
KHA1 131455Z 36025G36KT 07/04 A2974 RMK A01 T00690041  RH  084%=      5-min Rain = 0
KHA1 131500Z 36027G36KT 07/04 A2974 RMK A01 T00700041  RH  084%=      5-min Rain = 0
KHA1 131505Z 36027G35KT 07/04 A2975 RMK A01 T00690039  RH  082%=      5-min Rain = 0
KHA1 131510Z 36022G33KT 07/04 A2976 RMK A01 T00680036  RH  082%=      5-min Rain = 0
KHA1 131515Z 35022G30KT 06/03 A2977 RMK A01 T00640033  RH  082%=      5-min Rain = 0
KHA1 131520Z 36028G33KT 06/03 A2977 RMK A01 T00620025  RH  078%=      5-min Rain = 0
KHA1 131525Z 35026G35KT 06/02 A2978 RMK A01 T00610024  RH  078%=      5-min Rain = 0
KHA1 131530Z 35026G33KT 06/02 A2978 RMK A01 T00590020  RH  077%=      5-min Rain = 0
KHA1 131535Z 35023G35KT 06/02 A2978 RMK A01 T00580020  RH  078%=      5-min Rain = 0
KHA1 131540Z 35029G36KT 06/02 A2978 RMK A01 T00560016  RH  076%=      5-min Rain = 0
KHA1 131545Z 35026G36KT 06/02 A2978 RMK A01 T00550015  RH  077%=      5-min Rain = 0
KHA1 131550Z 35029G36KT 05/01 A2978 RMK A01 T00540012  RH  076%=      5-min Rain = 0
KHA1 131555Z 35027G37KT 05/01 A2978 RMK A01 T00530013  RH  076%=      5-min Rain = 0
KHA1 131600Z 35028G41KT 05/01 A2978 RMK A01 T00530012  RH  076%=      5-min Rain = 0
KHA1 131605Z 35026G34KT 05/01 A2979 RMK A01 T00520011  RH  076%=      5-min Rain = 0
KHA1 131610Z 35023G34KT 05/01 A2979 RMK A01 T00520013  RH  077%=      5-min Rain = 0
KHA1 131615Z 35024G30KT 05/01 A298 RMK A01 T00520012  RH  076%=      5-min Rain = 0
KHA1 131620Z 35025G33KT 05/01 A2981 RMK A01 T00520010  RH  076%=      5-min Rain = 0
KHA1 131625Z 35024G34KT 05/01 A2981 RMK A01 T00510012  RH  077%=      5-min Rain = 0
KHA1 131630Z 35026G35KT 05/01 A2981 RMK A01 T00510010  RH  076%=      5-min Rain = 0
KHA1 131635Z 35021G30KT 05/01 A2982 RMK A01 T00510012  RH  077%=      5-min Rain = 0
KHA1 131640Z 35019G27KT 05/01 A2982 RMK A01 T00510013  RH  078%=      5-min Rain = 0
KHA1 131645Z 35024G32KT 05/01 A2982 RMK A01 T00510012  RH  077%=      5-min Rain = 0
KHA1 131650Z 35025G33KT 05/01 A2982 RMK A01 T00510012  RH  077%=      5-min Rain = 0
KHA1 131655Z 35023G33KT 05/01 A2982 RMK A01 T00510013  RH  078%=      5-min Rain = 0
KHA1 131700Z 36026G34KT 05/01 A2982 RMK A01 T00510012  RH  077%=      5-min Rain = 0
KHA1 131705Z 35026G33KT 05/01 A2982 RMK A01 T00500013  RH  078%=      5-min Rain = 0
KHA1 131710Z 36023G32KT 05/01 A2982 RMK A01 T00490014  RH  079%=      5-min Rain = 0
KHA1 131715Z 36024G31KT 05/02 A2981 RMK A01 T00480016  RH  081%=      5-min Rain = 0
KHA1 131720Z 36025G35KT 05/02 A2981 RMK A01 T00470016  RH  082%=      5-min Rain = 0
KHA1 131725Z 36024G32KT 05/02 A298 RMK A01 T00460017  RH  083%=      5-min Rain = 0
KHA1 131730Z 35023G31KT 05/02 A298 RMK A01 T00460018  RH  083%=      5-min Rain = 0
KHA1 131735Z 35022G27KT 05/02 A298 RMK A01 T00460019  RH  084%=      5-min Rain = 0
KHA1 131740Z 35023G29KT 05/02 A298 RMK A01 T00470019  RH  083%=      5-min Rain = 0
KHA1 131745Z 36020G28KT 05/02 A298 RMK A01 T00470020  RH  084%=      5-min Rain = 0
KHA1 131750Z 36021G26KT 05/02 A298 RMK A01 T00460021  RH  085%=      5-min Rain = 0
KHA1 131755Z 00024G31KT 05/02 A298 RMK A01 T00460021  RH  085%=      5-min Rain = 0.01
KHA1 131800Z 36021G29KT 05/02 A298 RMK A01 T00460022  RH  086%=      5-min Rain = 0
KHA1 131805Z 36021G27KT 05/02 A298 RMK A01 T00460023  RH  086%=      5-min Rain = 0
KHA1 131810Z 36022G30KT 05/02 A2979 RMK A01 T00450023  RH  087%=      5-min Rain = 0
KHA1 131815Z 36022G29KT 05/02 A2979 RMK A01 T00450024  RH  087%=      5-min Rain = 0
KHA1 131820Z 36023G30KT 05/02 A2979 RMK A01 T00450024  RH  088%=      5-min Rain = 0.01
KHA1 131825Z 36023G33KT 04/03 A2979 RMK A01 T00440025  RH  089%=      5-min Rain = 0
KHA1 131830Z 36024G32KT 04/02 A2979 RMK A01 T00430023  RH  089%=      5-min Rain = 0
KHA1 131835Z 36024G32KT 04/02 A2979 RMK A01 T00410023  RH  090%=      5-min Rain = 0
KHA1 131840Z 36024G33KT 04/02 A2979 RMK A01 T00400023  RH  090%=      5-min Rain = 0.02
KHA1 131845Z 36023G31KT 04/02 A2979 RMK A01 T00370022  RH  091%=      5-min Rain = 0.02
KHA1 131850Z 36023G32KT 04/02 A2979 RMK A01 T00380023  RH  091%=      5-min Rain = 0.01
KHA1 131855Z 35022G29KT 04/03 A2978 RMK A01 T00400025  RH  091%=      5-min Rain = 0
KHA1 131900Z 35023G31KT 04/03 A2978 RMK A01 T00410026  RH  091%=      5-min Rain = 0
KHA1 131905Z 35026G34KT 04/03 A2978 RMK A01 T00420026  RH  091%=      5-min Rain = 0
KHA1 131910Z 35026G34KT 04/03 A2978 RMK A01 T00430027  RH  091%=      5-min Rain = 0
KHA1 131915Z 35025G35KT 04/03 A2978 RMK A01 T00430028  RH  091%=      5-min Rain = 0
KHA1 131920Z 35026G35KT 04/03 A2978 RMK A01 T00430027  RH  091%=      5-min Rain = 0
KHA1 131925Z 35023G29KT 04/03 A2978 RMK A01 T00430029  RH  092%=      5-min Rain = 0
KHA1 131930Z 35024G29KT 04/03 A2978 RMK A01 T00440028  RH  091%=      5-min Rain = 0.01
KHA1 131935Z 35024G33KT 05/03 A2979 RMK A01 T00450028  RH  091%=      5-min Rain = 0
KHA1 131940Z 36024G31KT 05/03 A2979 RMK A01 T00460028  RH  090%=      5-min Rain = 0
KHA1 131945Z 36026G34KT 05/03 A2979 RMK A01 T00460028  RH  090%=      5-min Rain = 0
KHA1 131950Z 36027G34KT 05/03 A2979 RMK A01 T00460029  RH  090%=      5-min Rain = 0
KHA1 131955Z 35023G30KT 05/03 A2979 RMK A01 T00460030  RH  091%=      5-min Rain = 0
KHA1 132000Z 35027G37KT 05/03 A2979 RMK A01 T00460028  RH  090%=      5-min Rain = 0
KHA1 132005Z 35028G37KT 05/03 A2979 RMK A01 T00460028  RH  090%=      5-min Rain = 0
KHA1 132010Z 35028G39KT 05/03 A2979 RMK A01 T00450027  RH  090%=      5-min Rain = 0
KHA1 132015Z 35026G36KT 04/03 A2979 RMK A01 T00440028  RH  091%=      5-min Rain = 0
KHA1 132020Z 35025G32KT 04/03 A2979 RMK A01 T00440028  RH  091%=      5-min Rain = 0
KHA1 132025Z 35027G34KT 04/03 A2979 RMK A01 T00440028  RH  091%=      5-min Rain = 0
KHA1 132030Z 35028G37KT 04/03 A2979 RMK A01 T00440028  RH  091%=      5-min Rain = 0.01
KHA1 132035Z 35026G34KT 04/03 A298 RMK A01 T00430027  RH  091%=      5-min Rain = 0
KHA1 132040Z 35025G31KT 04/03 A298 RMK A01 T00420027  RH  091%=      5-min Rain = 0
KHA1 132045Z 35024G31KT 04/03 A298 RMK A01 T00420027  RH  092%=      5-min Rain = 0
KHA1 132050Z 35023G33KT 04/03 A298 RMK A01 T00420028  RH  092%=      5-min Rain = 0
KHA1 132055Z 35022G29KT 04/03 A298 RMK A01 T00420029  RH  093%=      5-min Rain = 0
KHA1 132100Z 36024G33KT 04/03 A298 RMK A01 T00430029  RH  092%=      5-min Rain = 0
KHA1 132105Z 35027G34KT 04/03 A298 RMK A01 T00440028  RH  091%=      5-min Rain = 0
KHA1 132110Z 35025G31KT 04/03 A2981 RMK A01 T00430028  RH  091%=      5-min Rain = 0
KHA1 132115Z 35023G32KT 04/03 A2981 RMK A01 T00430028  RH  092%=      5-min Rain = 0
KHA1 132120Z 35024G32KT 04/03 A2982 RMK A01 T00440028  RH  091%=      5-min Rain = 0
KHA1 132125Z 35024G30KT 04/03 A2982 RMK A01 T00430027  RH  091%=      5-min Rain = 0.01
KHA1 132130Z 35024G31KT 04/03 A2982 RMK A01 T00430027  RH  091%=      5-min Rain = 0
KHA1 132135Z 35023G32KT 04/03 A2982 RMK A01 T00420026  RH  091%=      5-min Rain = 0.01
KHA1 132140Z 35023G31KT 04/03 A2983 RMK A01 T00430027  RH  091%=      5-min Rain = 0
KHA1 132145Z 35022G29KT 04/03 A2984 RMK A01 T00440027  RH  091%=      5-min Rain = 0
KHA1 132150Z 35021G30KT 04/03 A2984 RMK A01 T00440027  RH  090%=      5-min Rain = 0
KHA1 132155Z 35020G28KT 04/03 A2984 RMK A01 T00440028  RH  091%=      5-min Rain = 0.01
KHA1 132200Z 35020G25KT 05/03 A2984 RMK A01 T00450028  RH  091%=      5-min Rain = 0
KHA1 132205Z 35020G25KT 05/03 A2984 RMK A01 T00450028  RH  090%=      5-min Rain = 0
KHA1 132210Z 35021G29KT 05/03 A2985 RMK A01 T00460027  RH  089%=      5-min Rain = 0
KHA1 132215Z 35024KT 05/03 A2985 RMK A01 T00470026  RH  088%=      5-min Rain = 0
KHA1 132220Z 36021G27KT 05/03 A2985 RMK A01 T00480027  RH  088%=      5-min Rain = 0
KHA1 132225Z 36020G28KT 05/03 A2986 RMK A01 T00480028  RH  088%=      5-min Rain = 0.01
KHA1 132230Z 36020G26KT 05/03 A2986 RMK A01 T00480028  RH  088%=      5-min Rain = 0
KHA1 132235Z 36020G26KT 05/03 A2986 RMK A01 T00480028  RH  089%=      5-min Rain = 0
KHA1 132240Z 35021G28KT 05/03 A2986 RMK A01 T00480029  RH  089%=      5-min Rain = 0
KHA1 132245Z 35019G24KT 05/03 A2986 RMK A01 T00480029  RH  089%=      5-min Rain = 0.01
KHA1 132250Z 35023G37KT 05/03 A2986 RMK A01 T00490028  RH  088%=      5-min Rain = 0
KHA1 132255Z 35024G32KT 05/03 A2986 RMK A01 T00500027  RH  087%=      5-min Rain = 0
KHA1 132300Z 35024G32KT 05/03 A2986 RMK A01 T00520027  RH  086%=      5-min Rain = 0
KHA1 132305Z 35021G28KT 05/03 A2987 RMK A01 T00520027  RH  086%=      5-min Rain = 0
KHA1 132310Z 35020G28KT 05/03 A2987 RMK A01 T00520028  RH  086%=      5-min Rain = 0
KHA1 132315Z 35021G29KT 05/03 A2987 RMK A01 T00520028  RH  086%=      5-min Rain = 0
KHA1 132320Z 34020G28KT 05/03 A2987 RMK A01 T00530027  RH  085%=      5-min Rain = 0
KHA1 132325Z 35021G28KT 05/03 A2987 RMK A01 T00540026  RH  083%=      5-min Rain = 0
KHA1 132330Z 36018G24KT 05/03 A2987 RMK A01 T00540026  RH  084%=      5-min Rain = 0.01
KHA1 132335Z 35018G29KT 05/03 A2987 RMK A01 T00540027  RH  084%=      5-min Rain = 0
KHA1 132340Z 35025G32KT 06/02 A2987 RMK A01 T00570023  RH  080%=      5-min Rain = 0
KHA1 132345Z 35026G36KT 06/02 A2987 RMK A01 T00580022  RH  078%=      5-min Rain = 0
KHA1 132350Z 35028G36KT 06/02 A2987 RMK A01 T00600019  RH  076%=      5-min Rain = 0
KHA1 132355Z 35030G40KT 06/02 A2988 RMK A01 T00620017  RH  074%=      5-min Rain = 0
KHA1 140000Z 36032G49KT 06/02 A2988 RMK A01 T00620017  RH  074%=      5-min Rain = 0
KHA1 140005Z 35035G46KT 06/02 A2988 RMK A01 T00610016  RH  074%=      5-min Rain = 0
KHA1 140010Z 36030G43KT 06/02 A2989 RMK A01 T00600018  RH  075%=      5-min Rain = 0
KHA1 140015Z 00031G41KT 06/02 A299 RMK A01 T00600017  RH  075%=      5-min Rain = 0
KHA1 140020Z 35034G44KT 06/02 A299 RMK A01 T00620015  RH  073%=      5-min Rain = 0
KHA1 140025Z 36030G41KT 06/02 A2991 RMK A01 T00630015  RH  073%=      5-min Rain = 0
KHA1 140030Z 00026G35KT 06/02 A2991 RMK A01 T00620016  RH  074%=      5-min Rain = 0
KHA1 140035Z 00023G28KT 06/02 A2992 RMK A01 T00610017  RH  075%=      5-min Rain = 0
KHA1 140040Z 36027G39KT 06/02 A2992 RMK A01 T00620015  RH  073%=      5-min Rain = 0
KHA1 140045Z 36029G42KT 06/01 A2992 RMK A01 T00630014  RH  072%=      5-min Rain = 0
KHA1 140050Z 35032G43KT 06/01 A2992 RMK A01 T00630012  RH  071%=      5-min Rain = 0
KHA1 140055Z 35030G42KT 06/01 A2992 RMK A01 T00640011  RH  070%=      5-min Rain = 0
KHA1 140100Z 35024G30KT 06/01 A2993 RMK A01 T00630013  RH  071%=      5-min Rain = 0
KHA1 140105Z 35024G30KT 06/01 A2993 RMK A01 T00620013  RH  072%=      5-min Rain = 0
KHA1 140110Z 35032G49KT 06/01 A2993 RMK A01 T00600013  RH  073%=      5-min Rain = 0
KHA1 140115Z 36036G48KT 06/01 A2993 RMK A01 T00590011  RH  073%=      5-min Rain = 0
KHA1 140120Z 35032G44KT 06/01 A2992 RMK A01 T00580013  RH  074%=      5-min Rain = 0
KHA1 140125Z 35037G46KT 06/01 A2992 RMK A01 T00620009  RH  070%=      5-min Rain = 0
KHA1 140130Z 35029G38KT 06/01 A2994 RMK A01 T00590011  RH  072%=      5-min Rain = 0
KHA1 140135Z 36033G46KT 06/01 A2994 RMK A01 T00580011  RH  073%=      5-min Rain = 0
KHA1 140140Z 35032G43KT 06/01 A2994 RMK A01 T00570011  RH  073%=      5-min Rain = 0
KHA1 140145Z 35033G42KT 06/01 A2994 RMK A01 T00570010  RH  072%=      5-min Rain = 0
KHA1 140150Z 00033G45KT 06/01 A2995 RMK A01 T00560010  RH  073%=      5-min Rain = 0
KHA1 140155Z 36034G43KT 05/01 A2995 RMK A01 T00530012  RH  076%=      5-min Rain = 0.01
KHA1 140200Z 00035G45KT 05/01 A2996 RMK A01 T00510012  RH  077%=      5-min Rain = 0
KHA1 140205Z 00036G46KT 05/01 A2996 RMK A01 T00500012  RH  078%=      5-min Rain = 0
KHA1 140210Z 35033G42KT 05/01 A2996 RMK A01 T00510010  RH  076%=      5-min Rain = 0
KHA1 140215Z 36027G38KT 05/01 A2996 RMK A01 T00510012  RH  077%=      5-min Rain = 0
KHA1 140220Z 35036G46KT 05/01 A2996 RMK A01 T00520009  RH  075%=      5-min Rain = 0.01
KHA1 140225Z 36032G49KT 05/01 A2997 RMK A01 T00490013  RH  078%=      5-min Rain = 0
KHA1 140230Z 36037G49KT 05/01 A2997 RMK A01 T00480012  RH  078%=      5-min Rain = 0.01
KHA1 140235Z 36033G41KT 05/01 A2997 RMK A01 T00490011  RH  077%=      5-min Rain = 0
KHA1 140240Z 35034G44KT 05/01 A2997 RMK A01 T00510010  RH  076%=      5-min Rain = 0
KHA1 140245Z 35031G43KT 05/01 A2997 RMK A01 T00520009  RH  074%=      5-min Rain = 0
KHA1 140250Z 36032G43KT 05/01 A2997 RMK A01 T00540008  RH  073%=      5-min Rain = 0
KHA1 140255Z 35029G43KT 05/01 A2997 RMK A01 T00540008  RH  073%=      5-min Rain = 0
KHA1 140300Z 36027G39KT 05/01 A2998 RMK A01 T00540008  RH  073%=      5-min Rain = 0
KHA1 140305Z 35025G35KT 06/01 A2998 RMK A01 T00550006  RH  072%=      5-min Rain = 0
KHA1 140310Z 35026G36KT 06/00 A2997 RMK A01 T00580003  RH  068%=      5-min Rain = 0
KHA1 140315Z 35023G30KT 06/00 A2997 RMK A01 T00580004  RH  069%=      5-min Rain = 0
KHA1 140320Z 35022G29KT 06/00 A2997 RMK A01 T00580004  RH  069%=      5-min Rain = 0
KHA1 140325Z 35023G30KT 06/00 A2997 RMK A01 T00590002  RH  068%=      5-min Rain = 0
KHA1 140330Z 35022G29KT 06/00 A2998 RMK A01 T00580002  RH  068%=      5-min Rain = 0
KHA1 140335Z 35021G30KT 06/00 A2998 RMK A01 T00580002  RH  068%=      5-min Rain = 0
KHA1 140340Z 35023G31KT 06/00 A2998 RMK A01 T00590001  RH  067%=      5-min Rain = 0
KHA1 140345Z 35023G30KT 06/M00 A2998 RMK A01 T00591002  RH  066%=      5-min Rain = 0
KHA1 140350Z 35023G29KT 06/M00 A2998 RMK A01 T00581002  RH  066%=      5-min Rain = 0
KHA1 140355Z 35024G32KT 06/M01 A2998 RMK A01 T00591005  RH  065%=      5-min Rain = 0
KHA1 140400Z 35022G28KT 06/M00 A2998 RMK A01 T00571004  RH  066%=      5-min Rain = 0
KHA1 140405Z 35022G28KT 06/M01 A2999 RMK A01 T00571006  RH  064%=      5-min Rain = 0
KHA1 140410Z 35021G27KT 06/M01 A2999 RMK A01 T00561006  RH  065%=      5-min Rain = 0
KHA1 140415Z 35023G30KT 06/M01 A2999 RMK A01 T00571010  RH  063%=      5-min Rain = 0
KHA1 140420Z 35023G30KT 06/M01 A2999 RMK A01 T00561010  RH  063%=      5-min Rain = 0
KHA1 140425Z 35024G32KT 06/M01 A2999 RMK A01 T00561012  RH  062%=      5-min Rain = 0
KHA1 140430Z 35027G36KT 06/M02 A2999 RMK A01 T00561015  RH  060%=      5-min Rain = 0
KHA1 140435Z 35022G29KT 05/M01 A30 RMK A01 T00541012  RH  063%=      5-min Rain = 0
KHA1 140440Z 35023G31KT 05/M01 A30 RMK A01 T00541014  RH  062%=      5-min Rain = 0
KHA1 140445Z 35022G31KT 05/M02 A30 RMK A01 T00531015  RH  062%=      5-min Rain = 0
KHA1 140450Z 35023G30KT 05/M02 A30 RMK A01 T00531016  RH  062%=      5-min Rain = 0
KHA1 140455Z 35024G34KT 05/M02 A30 RMK A01 T00541018  RH  060%=      5-min Rain = 0
KHA1 140500Z 35024G29KT 05/M02 A30 RMK A01 T00531020  RH  060%=      5-min Rain = 0
KHA1 140505Z 35021G27KT 05/M02 A3001 RMK A01 T00521019  RH  061%=      5-min Rain = 0
KHA1 140510Z 34022G30KT 05/M02 A30 RMK A01 T00521020  RH  060%=      5-min Rain = 0
KHA1 140515Z 34022G27KT 05/M02 A3001 RMK A01 T00511020  RH  061%=      5-min Rain = 0
KHA1 140520Z 34024G31KT 05/M02 A3001 RMK A01 T00511022  RH  059%=      5-min Rain = 0
KHA1 140525Z 34022G30KT 05/M02 A3001 RMK A01 T00511023  RH  059%=      5-min Rain = 0
KHA1 140530Z 34023G30KT 05/M02 A3001 RMK A01 T00501023  RH  060%=      5-min Rain = 0
KHA1 140535Z 34025G33KT 05/M03 A3001 RMK A01 T00501025  RH  059%=      5-min Rain = 0
KHA1 140540Z 34026G35KT 05/M03 A3001 RMK A01 T00501025  RH  059%=      5-min Rain = 0
KHA1 140545Z 35025G30KT 05/M03 A3002 RMK A01 T00501026  RH  058%=      5-min Rain = 0
KHA1 140550Z 34024G33KT 05/M02 A3002 RMK A01 T00491024  RH  060%=      5-min Rain = 0
KHA1 140555Z 34024G30KT 05/M02 A3002 RMK A01 T00491023  RH  060%=      5-min Rain = 0

Page generated in 0.0108 seconds.